sensor_id;sensor_type;location;lat;lon;timestamp;pressure;altitude;pressure_sealevel;temperature;humidity
13407;BME280;6774;48.208;10.766;2023-03-18T00:00:58;95151.84;;;5.11;79.58
13407;BME280;6774;48.208;10.766;2023-03-18T00:03:29;95149.72;;;4.90;79.57
13407;BME280;6774;48.208;10.766;2023-03-18T00:06:02;95157.38;;;4.92;79.48
13407;BME280;6774;48.208;10.766;2023-03-18T00:08:30;95149.06;;;4.88;79.69
13407;BME280;6774;48.208;10.766;2023-03-18T00:11:00;95157.09;;;4.95;79.52
13407;BME280;6774;48.208;10.766;2023-03-18T00:13:30;95149.72;;;4.98;79.51
13407;BME280;6774;48.208;10.766;2023-03-18T00:15:59;95150.38;;;5.00;79.36
13407;BME280;6774;48.208;10.766;2023-03-18T00:18:28;95159.22;;;5.16;79.31
13407;BME280;6774;48.208;10.766;2023-03-18T00:20:57;95165.75;;;5.28;79.38
13407;BME280;6774;48.208;10.766;2023-03-18T00:23:27;95162.66;;;5.32;79.06
13407;BME280;6774;48.208;10.766;2023-03-18T00:25:56;95167.41;;;5.37;79.21
13407;BME280;6774;48.208;10.766;2023-03-18T00:28:27;95170.81;;;5.46;79.60
13407;BME280;6774;48.208;10.766;2023-03-18T00:31:01;95168.22;;;5.54;79.14
13407;BME280;6774;48.208;10.766;2023-03-18T00:33:29;95163.44;;;5.65;79.01
13407;BME280;6774;48.208;10.766;2023-03-18T00:35:57;95172.44;;;5.79;78.78
13407;BME280;6774;48.208;10.766;2023-03-18T00:38:25;95173.09;;;5.81;78.22
13407;BME280;6774;48.208;10.766;2023-03-18T00:40:53;95171.63;;;5.79;78.11
13407;BME280;6774;48.208;10.766;2023-03-18T00:43:29;95175.72;;;5.73;78.50
13407;BME280;6774;48.208;10.766;2023-03-18T00:46:02;95171.00;;;5.60;78.64
13407;BME280;6774;48.208;10.766;2023-03-18T00:48:30;95171.47;;;5.56;79.02
13407;BME280;6774;48.208;10.766;2023-03-18T00:50:58;95176.88;;;5.38;78.64
13407;BME280;6774;48.208;10.766;2023-03-18T00:53:26;95178.84;;;5.28;78.66
13407;BME280;6774;48.208;10.766;2023-03-18T00:55:54;95177.19;;;5.10;78.69
13407;BME280;6774;48.208;10.766;2023-03-18T00:58:21;95181.75;;;5.08;78.97
13407;BME280;6774;48.208;10.766;2023-03-18T01:00:51;95186.00;;;5.01;79.18
13407;BME280;6774;48.208;10.766;2023-03-18T01:03:19;95171.09;;;4.94;79.33
13407;BME280;6774;48.208;10.766;2023-03-18T01:05:51;95177.19;;;4.94;78.99
13407;BME280;6774;48.208;10.766;2023-03-18T01:08:19;95179.13;;;4.92;79.49
13407;BME280;6774;48.208;10.766;2023-03-18T01:10:50;95176.63;;;4.74;79.08
13407;BME280;6774;48.208;10.766;2023-03-18T01:13:18;95187.91;;;4.75;78.70
13407;BME280;6774;48.208;10.766;2023-03-18T01:15:46;95183.50;;;4.75;79.00
13407;BME280;6774;48.208;10.766;2023-03-18T01:18:16;95181.84;;;4.74;79.35
13407;BME280;6774;48.208;10.766;2023-03-18T01:20:44;95176.97;;;4.71;79.49
13407;BME280;6774;48.208;10.766;2023-03-18T01:23:14;95178.44;;;4.74;78.97
13407;BME280;6774;48.208;10.766;2023-03-18T01:25:42;95176.66;;;4.82;79.15
13407;BME280;6774;48.208;10.766;2023-03-18T01:28:16;95177.63;;;4.81;79.75
13407;BME280;6774;48.208;10.766;2023-03-18T01:30:44;95175.38;;;4.87;79.49
13407;BME280;6774;48.208;10.766;2023-03-18T01:33:17;95183.53;;;4.92;79.67
13407;BME280;6774;48.208;10.766;2023-03-18T01:35:45;95174.06;;;4.99;79.87
13407;BME280;6774;48.208;10.766;2023-03-18T01:38:14;95178.66;;;5.05;79.45
13407;BME280;6774;48.208;10.766;2023-03-18T01:40:42;95173.44;;;5.13;79.36
13407;BME280;6774;48.208;10.766;2023-03-18T01:43:14;95171.66;;;5.22;79.43
13407;BME280;6774;48.208;10.766;2023-03-18T01:45:47;95179.47;;;5.30;79.28
13407;BME280;6774;48.208;10.766;2023-03-18T01:48:19;95179.00;;;5.34;79.18
13407;BME280;6774;48.208;10.766;2023-03-18T01:50:50;95182.28;;;5.36;79.07
13407;BME280;6774;48.208;10.766;2023-03-18T01:53:20;95182.91;;;5.38;79.27
13407;BME280;6774;48.208;10.766;2023-03-18T01:55:49;95187.19;;;5.39;79.16
13407;BME280;6774;48.208;10.766;2023-03-18T01:58:19;95192.09;;;5.42;79.39
13407;BME280;6774;48.208;10.766;2023-03-18T02:00:59;95192.56;;;5.46;79.24
13407;BME280;6774;48.208;10.766;2023-03-18T02:03:29;95188.50;;;5.52;79.12
13407;BME280;6774;48.208;10.766;2023-03-18T02:05:57;95189.78;;;5.48;79.29
13407;BME280;6774;48.208;10.766;2023-03-18T02:08:26;95191.13;;;5.43;79.47
13407;BME280;6774;48.208;10.766;2023-03-18T02:10:55;95200.25;;;5.48;79.53
13407;BME280;6774;48.208;10.766;2023-03-18T02:13:23;95201.06;;;5.48;79.54
13407;BME280;6774;48.208;10.766;2023-03-18T02:15:56;95199.94;;;5.51;79.58
13407;BME280;6774;48.208;10.766;2023-03-18T02:18:29;95197.97;;;5.53;79.08
13407;BME280;6774;48.208;10.766;2023-03-18T02:21:12;95191.75;;;5.54;79.51
13407;BME280;6774;48.208;10.766;2023-03-18T02:23:52;95188.16;;;5.55;79.10
13407;BME280;6774;48.208;10.766;2023-03-18T02:26:27;95195.69;;;5.58;79.26
13407;BME280;6774;48.208;10.766;2023-03-18T02:29:00;95202.22;;;5.62;79.34
13407;BME280;6774;48.208;10.766;2023-03-18T02:31:39;95196.34;;;5.68;79.03
13407;BME280;6774;48.208;10.766;2023-03-18T02:34:09;95195.34;;;5.69;78.99
13407;BME280;6774;48.208;10.766;2023-03-18T02:36:39;95195.66;;;5.74;78.93
13407;BME280;6774;48.208;10.766;2023-03-18T02:39:12;95197.97;;;5.77;78.81
13407;BME280;6774;48.208;10.766;2023-03-18T02:41:40;95205.50;;;5.80;78.76
13407;BME280;6774;48.208;10.766;2023-03-18T02:44:10;95204.97;;;5.85;78.33
13407;BME280;6774;48.208;10.766;2023-03-18T02:46:54;95197.00;;;5.94;78.11
13407;BME280;6774;48.208;10.766;2023-03-18T02:49:24;95204.50;;;5.97;77.49
13407;BME280;6774;48.208;10.766;2023-03-18T02:51:54;95206.78;;;6.01;77.01
13407;BME280;6774;48.208;10.766;2023-03-18T02:54:25;95206.47;;;6.04;77.04
13407;BME280;6774;48.208;10.766;2023-03-18T02:56:53;95212.66;;;6.11;76.87
13407;BME280;6774;48.208;10.766;2023-03-18T02:59:23;95205.63;;;6.11;76.74
13407;BME280;6774;48.208;10.766;2023-03-18T03:01:52;95217.09;;;6.10;76.85
13407;BME280;6774;48.208;10.766;2023-03-18T03:04:22;95207.13;;;6.06;77.71
13407;BME280;6774;48.208;10.766;2023-03-18T03:06:52;95209.75;;;6.06;77.39
13407;BME280;6774;48.208;10.766;2023-03-18T03:09:32;95220.53;;;6.03;77.30
13407;BME280;6774;48.208;10.766;2023-03-18T03:12:01;95220.69;;;6.01;77.55
13407;BME280;6774;48.208;10.766;2023-03-18T03:14:30;95214.00;;;5.98;76.97
13407;BME280;6774;48.208;10.766;2023-03-18T03:17:00;95214.81;;;5.99;76.10
13407;BME280;6774;48.208;10.766;2023-03-18T03:19:28;95211.06;;;5.93;76.33
13407;BME280;6774;48.208;10.766;2023-03-18T03:21:56;95220.69;;;5.85;76.08
13407;BME280;6774;48.208;10.766;2023-03-18T03:24:24;95225.13;;;5.76;76.48
13407;BME280;6774;48.208;10.766;2023-03-18T03:26:52;95224.81;;;5.79;76.80
13407;BME280;6774;48.208;10.766;2023-03-18T03:29:20;95225.97;;;5.77;76.85
13407;BME280;6774;48.208;10.766;2023-03-18T03:31:49;95220.56;;;5.78;77.44
13407;BME280;6774;48.208;10.766;2023-03-18T03:34:17;95228.06;;;5.81;77.42
13407;BME280;6774;48.208;10.766;2023-03-18T03:36:45;95224.16;;;5.77;77.81
13407;BME280;6774;48.208;10.766;2023-03-18T03:39:12;95230.69;;;5.73;77.85
13407;BME280;6774;48.208;10.766;2023-03-18T03:41:40;95233.47;;;5.71;77.86
13407;BME280;6774;48.208;10.766;2023-03-18T03:44:08;95228.22;;;5.71;77.67
13407;BME280;6774;48.208;10.766;2023-03-18T03:46:36;95239.22;;;5.67;77.46
13407;BME280;6774;48.208;10.766;2023-03-18T03:49:05;95236.59;;;5.51;78.55
13407;BME280;6774;48.208;10.766;2023-03-18T03:51:33;95240.03;;;5.59;78.67
13407;BME280;6774;48.208;10.766;2023-03-18T03:54:02;95245.44;;;5.58;78.01
13407;BME280;6774;48.208;10.766;2023-03-18T03:56:29;95248.03;;;5.58;79.02
13407;BME280;6774;48.208;10.766;2023-03-18T03:58:57;95249.34;;;5.62;78.83
13407;BME280;6774;48.208;10.766;2023-03-18T04:01:40;95247.38;;;5.64;78.75
13407;BME280;6774;48.208;10.766;2023-03-18T04:04:09;95250.34;;;5.77;78.71
13407;BME280;6774;48.208;10.766;2023-03-18T04:06:37;95255.91;;;5.90;77.76
13407;BME280;6774;48.208;10.766;2023-03-18T04:09:05;95261.13;;;6.07;77.08
13407;BME280;6774;48.208;10.766;2023-03-18T04:11:33;95265.69;;;6.29;75.65
13407;BME280;6774;48.208;10.766;2023-03-18T04:14:00;95270.69;;;6.55;74.58
13407;BME280;6774;48.208;10.766;2023-03-18T04:16:28;95270.47;;;6.73;73.45
13407;BME280;6774;48.208;10.766;2023-03-18T04:18:56;95260.13;;;6.79;73.78
13407;BME280;6774;48.208;10.766;2023-03-18T04:21:25;95263.00;;;6.93;72.97
13407;BME280;6774;48.208;10.766;2023-03-18T04:23:54;95267.06;;;7.03;72.12
13407;BME280;6774;48.208;10.766;2023-03-18T04:26:22;95257.78;;;6.84;71.93
13407;BME280;6774;48.208;10.766;2023-03-18T04:28:52;95254.75;;;6.73;72.52
13407;BME280;6774;48.208;10.766;2023-03-18T04:31:21;95254.78;;;6.56;72.92
13407;BME280;6774;48.208;10.766;2023-03-18T04:33:49;95257.13;;;6.43;73.48
13407;BME280;6774;48.208;10.766;2023-03-18T04:36:16;95253.72;;;6.26;74.49
13407;BME280;6774;48.208;10.766;2023-03-18T04:38:45;95254.91;;;6.24;74.51
13407;BME280;6774;48.208;10.766;2023-03-18T04:41:13;95260.03;;;6.56;73.68
13407;BME280;6774;48.208;10.766;2023-03-18T04:43:41;95254.50;;;6.51;72.92
13407;BME280;6774;48.208;10.766;2023-03-18T04:46:10;95253.47;;;6.69;73.52
13407;BME280;6774;48.208;10.766;2023-03-18T04:48:39;95257.72;;;6.62;74.13
13407;BME280;6774;48.208;10.766;2023-03-18T04:51:08;95250.63;;;6.31;74.28
13407;BME280;6774;48.208;10.766;2023-03-18T04:53:37;95253.38;;;6.30;74.70
13407;BME280;6774;48.208;10.766;2023-03-18T04:56:08;95256.53;;;6.17;74.52
13407;BME280;6774;48.208;10.766;2023-03-18T04:58:43;95249.50;;;6.17;74.89
13407;BME280;6774;48.208;10.766;2023-03-18T05:01:16;95251.56;;;6.38;74.25
13407;BME280;6774;48.208;10.766;2023-03-18T05:03:44;95253.09;;;6.72;73.01
13407;BME280;6774;48.208;10.766;2023-03-18T05:06:20;95258.22;;;7.04;71.65
13407;BME280;6774;48.208;10.766;2023-03-18T05:08:55;95250.78;;;7.39;69.75
13407;BME280;6774;48.208;10.766;2023-03-18T05:11:29;95250.63;;;7.63;69.08
13407;BME280;6774;48.208;10.766;2023-03-18T05:14:01;95246.56;;;7.76;68.17
13407;BME280;6774;48.208;10.766;2023-03-18T05:16:37;95254.28;;;7.54;68.77
13407;BME280;6774;48.208;10.766;2023-03-18T05:19:05;95258.38;;;7.34;69.60
13407;BME280;6774;48.208;10.766;2023-03-18T05:21:37;95250.94;;;7.15;69.96
13407;BME280;6774;48.208;10.766;2023-03-18T05:24:05;95249.22;;;6.99;70.54
13407;BME280;6774;48.208;10.766;2023-03-18T05:26:39;95250.34;;;7.04;70.80
13407;BME280;6774;48.208;10.766;2023-03-18T05:29:08;95252.75;;;7.14;70.26
13407;BME280;6774;48.208;10.766;2023-03-18T05:31:59;95243.75;;;7.08;70.79
13407;BME280;6774;48.208;10.766;2023-03-18T05:34:28;95248.06;;;7.01;71.13
13407;BME280;6774;48.208;10.766;2023-03-18T05:36:57;95247.81;;;6.88;71.51
13407;BME280;6774;48.208;10.766;2023-03-18T05:39:26;95248.00;;;6.78;72.13
13407;BME280;6774;48.208;10.766;2023-03-18T05:41:59;95254.75;;;6.65;72.18
13407;BME280;6774;48.208;10.766;2023-03-18T05:44:28;95261.72;;;6.41;72.80
13407;BME280;6774;48.208;10.766;2023-03-18T05:46:59;95255.88;;;6.31;72.44
13407;BME280;6774;48.208;10.766;2023-03-18T05:49:57;95256.06;;;6.05;74.32
13407;BME280;6774;48.208;10.766;2023-03-18T05:52:26;95264.41;;;6.01;74.10
13407;BME280;6774;48.208;10.766;2023-03-18T05:54:57;95271.28;;;5.85;75.48
13407;BME280;6774;48.208;10.766;2023-03-18T05:57:32;95269.78;;;5.75;76.67
13407;BME280;6774;48.208;10.766;2023-03-18T06:00:03;95267.69;;;5.78;76.48
13407;BME280;6774;48.208;10.766;2023-03-18T06:02:46;95270.78;;;5.82;76.56
13407;BME280;6774;48.208;10.766;2023-03-18T06:05:16;95270.63;;;5.91;76.41
13407;BME280;6774;48.208;10.766;2023-03-18T06:07:45;95273.22;;;5.83;77.64
13407;BME280;6774;48.208;10.766;2023-03-18T06:10:13;95274.56;;;5.87;77.46
13407;BME280;6774;48.208;10.766;2023-03-18T06:12:45;95273.44;;;5.98;76.73
13407;BME280;6774;48.208;10.766;2023-03-18T06:15:15;95279.81;;;6.04;77.16
13407;BME280;6774;48.208;10.766;2023-03-18T06:17:43;95281.59;;;6.11;76.59
13407;BME280;6774;48.208;10.766;2023-03-18T06:20:12;95277.81;;;6.22;76.81
13407;BME280;6774;48.208;10.766;2023-03-18T06:22:40;95275.97;;;6.31;76.38
13407;BME280;6774;48.208;10.766;2023-03-18T06:25:09;95280.72;;;6.43;76.28
13407;BME280;6774;48.208;10.766;2023-03-18T06:27:38;95281.34;;;6.53;76.21
13407;BME280;6774;48.208;10.766;2023-03-18T06:30:09;95290.81;;;6.63;76.16
13407;BME280;6774;48.208;10.766;2023-03-18T06:32:38;95295.09;;;6.55;76.27
13407;BME280;6774;48.208;10.766;2023-03-18T06:35:08;95293.13;;;6.57;76.77
13407;BME280;6774;48.208;10.766;2023-03-18T06:37:38;95286.38;;;6.71;75.98
13407;BME280;6774;48.208;10.766;2023-03-18T06:40:08;95285.84;;;6.76;76.18
13407;BME280;6774;48.208;10.766;2023-03-18T06:42:37;95278.91;;;6.91;75.35
13407;BME280;6774;48.208;10.766;2023-03-18T06:45:14;95287.72;;;7.06;74.82
13407;BME280;6774;48.208;10.766;2023-03-18T06:47:48;95290.78;;;7.18;74.22
13407;BME280;6774;48.208;10.766;2023-03-18T06:50:17;95297.09;;;7.32;74.59
13407;BME280;6774;48.208;10.766;2023-03-18T06:52:46;95297.34;;;7.45;74.51
13407;BME280;6774;48.208;10.766;2023-03-18T06:55:17;95294.00;;;7.59;74.10
13407;BME280;6774;48.208;10.766;2023-03-18T06:57:45;95298.28;;;7.75;73.93
13407;BME280;6774;48.208;10.766;2023-03-18T07:00:19;95299.34;;;7.89;73.96
13407;BME280;6774;48.208;10.766;2023-03-18T07:02:48;95289.06;;;8.02;73.00
13407;BME280;6774;48.208;10.766;2023-03-18T07:05:17;95286.00;;;8.13;73.09
13407;BME280;6774;48.208;10.766;2023-03-18T07:07:46;95289.84;;;8.25;72.80
13407;BME280;6774;48.208;10.766;2023-03-18T07:10:17;95293.06;;;8.36;73.18
13407;BME280;6774;48.208;10.766;2023-03-18T07:12:47;95282.91;;;8.47;73.01
13407;BME280;6774;48.208;10.766;2023-03-18T07:15:18;95296.09;;;8.62;72.36
13407;BME280;6774;48.208;10.766;2023-03-18T07:17:50;95293.00;;;8.73;71.57
13407;BME280;6774;48.208;10.766;2023-03-18T07:20:19;95294.75;;;8.81;70.88
13407;BME280;6774;48.208;10.766;2023-03-18T07:22:49;95292.47;;;8.93;69.96
13407;BME280;6774;48.208;10.766;2023-03-18T07:25:17;95296.25;;;9.05;69.93
13407;BME280;6774;48.208;10.766;2023-03-18T07:27:48;95289.88;;;9.14;68.37
13407;BME280;6774;48.208;10.766;2023-03-18T07:30:18;95291.88;;;9.27;68.26
13407;BME280;6774;48.208;10.766;2023-03-18T07:32:46;95300.31;;;9.37;67.95
13407;BME280;6774;48.208;10.766;2023-03-18T07:35:15;95299.28;;;9.53;67.94
13407;BME280;6774;48.208;10.766;2023-03-18T07:37:43;95299.22;;;9.67;69.82
13407;BME280;6774;48.208;10.766;2023-03-18T07:40:11;95302.81;;;9.81;68.91
13407;BME280;6774;48.208;10.766;2023-03-18T07:42:39;95302.50;;;9.91;69.46
13407;BME280;6774;48.208;10.766;2023-03-18T07:45:08;95302.56;;;9.97;70.34
13407;BME280;6774;48.208;10.766;2023-03-18T07:47:37;95303.56;;;10.18;69.96
13407;BME280;6774;48.208;10.766;2023-03-18T07:50:06;95302.88;;;10.31;69.94
13407;BME280;6774;48.208;10.766;2023-03-18T07:52:34;95300.47;;;10.36;70.42
13407;BME280;6774;48.208;10.766;2023-03-18T07:55:03;95296.97;;;10.57;70.71
13407;BME280;6774;48.208;10.766;2023-03-18T07:57:31;95299.53;;;10.78;71.34
13407;BME280;6774;48.208;10.766;2023-03-18T07:59:59;95301.72;;;11.02;70.80
13407;BME280;6774;48.208;10.766;2023-03-18T08:02:26;95302.63;;;11.23;69.21
13407;BME280;6774;48.208;10.766;2023-03-18T08:04:55;95297.69;;;11.54;66.80
13407;BME280;6774;48.208;10.766;2023-03-18T08:07:24;95295.91;;;11.75;63.12
13407;BME280;6774;48.208;10.766;2023-03-18T08:09:52;95295.97;;;11.88;61.45
13407;BME280;6774;48.208;10.766;2023-03-18T08:12:20;95302.31;;;12.13;60.98
13407;BME280;6774;48.208;10.766;2023-03-18T08:14:48;95305.38;;;12.37;60.39
13407;BME280;6774;48.208;10.766;2023-03-18T08:17:15;95300.91;;;12.44;59.16
13407;BME280;6774;48.208;10.766;2023-03-18T08:19:44;95301.28;;;12.61;59.50
13407;BME280;6774;48.208;10.766;2023-03-18T08:22:14;95306.16;;;12.70;58.83
13407;BME280;6774;48.208;10.766;2023-03-18T08:24:42;95304.53;;;12.82;58.50
13407;BME280;6774;48.208;10.766;2023-03-18T08:27:14;95306.94;;;13.04;58.50
13407;BME280;6774;48.208;10.766;2023-03-18T08:29:41;95303.59;;;13.42;58.90
13407;BME280;6774;48.208;10.766;2023-03-18T08:32:10;95300.94;;;13.80;58.08
13407;BME280;6774;48.208;10.766;2023-03-18T08:34:38;95304.25;;;14.07;58.06
13407;BME280;6774;48.208;10.766;2023-03-18T08:37:06;95308.63;;;14.26;58.75
13407;BME280;6774;48.208;10.766;2023-03-18T08:39:35;95306.91;;;14.38;59.43
13407;BME280;6774;48.208;10.766;2023-03-18T08:42:03;95303.00;;;14.47;58.59
13407;BME280;6774;48.208;10.766;2023-03-18T08:44:31;95307.06;;;14.50;58.96
13407;BME280;6774;48.208;10.766;2023-03-18T08:46:59;95303.59;;;14.49;59.08
13407;BME280;6774;48.208;10.766;2023-03-18T08:49:27;95312.19;;;14.70;58.92
13407;BME280;6774;48.208;10.766;2023-03-18T08:51:55;95310.78;;;14.92;58.54
13407;BME280;6774;48.208;10.766;2023-03-18T08:54:23;95307.84;;;15.19;58.58
13407;BME280;6774;48.208;10.766;2023-03-18T08:56:52;95307.41;;;15.40;57.30
13407;BME280;6774;48.208;10.766;2023-03-18T08:59:20;95303.41;;;15.68;57.92
13407;BME280;6774;48.208;10.766;2023-03-18T09:01:48;95306.09;;;15.98;57.50
13407;BME280;6774;48.208;10.766;2023-03-18T09:04:15;95298.91;;;16.28;56.91
13407;BME280;6774;48.208;10.766;2023-03-18T09:06:43;95300.06;;;16.44;55.63
13407;BME280;6774;48.208;10.766;2023-03-18T09:09:11;95297.94;;;16.64;54.06
13407;BME280;6774;48.208;10.766;2023-03-18T09:11:40;95292.50;;;16.71;53.60
13407;BME280;6774;48.208;10.766;2023-03-18T09:14:09;95286.03;;;17.02;54.04
13407;BME280;6774;48.208;10.766;2023-03-18T09:16:37;95290.88;;;17.17;53.77
13407;BME280;6774;48.208;10.766;2023-03-18T09:19:05;95296.19;;;17.28;53.51
13407;BME280;6774;48.208;10.766;2023-03-18T09:21:33;95287.50;;;17.73;53.64
13407;BME280;6774;48.208;10.766;2023-03-18T09:24:01;95291.16;;;17.96;51.58
13407;BME280;6774;48.208;10.766;2023-03-18T09:26:32;95291.03;;;18.19;50.44
13407;BME280;6774;48.208;10.766;2023-03-18T09:29:00;95288.25;;;18.59;50.05
13407;BME280;6774;48.208;10.766;2023-03-18T09:31:29;95291.09;;;19.03;48.87
13407;BME280;6774;48.208;10.766;2023-03-18T09:33:57;95291.81;;;19.37;47.01
13407;BME280;6774;48.208;10.766;2023-03-18T09:36:25;95288.38;;;19.80;47.38
13407;BME280;6774;48.208;10.766;2023-03-18T09:38:54;95292.31;;;20.22;46.76
13407;BME280;6774;48.208;10.766;2023-03-18T09:41:28;95285.53;;;20.14;44.49
13407;BME280;6774;48.208;10.766;2023-03-18T09:44:08;95283.75;;;20.25;45.11
13407;BME280;6774;48.208;10.766;2023-03-18T09:46:50;95288.59;;;20.55;45.87
13407;BME280;6774;48.208;10.766;2023-03-18T09:49:38;95278.84;;;20.76;44.09
13407;BME280;6774;48.208;10.766;2023-03-18T09:52:16;95278.56;;;21.09;44.33
13407;BME280;6774;48.208;10.766;2023-03-18T09:54:50;95273.56;;;21.23;43.97
13407;BME280;6774;48.208;10.766;2023-03-18T09:57:23;95270.00;;;21.12;42.76
13407;BME280;6774;48.208;10.766;2023-03-18T09:59:59;95268.75;;;21.30;43.07
13407;BME280;6774;48.208;10.766;2023-03-18T10:02:38;95262.81;;;21.80;43.65
13407;BME280;6774;48.208;10.766;2023-03-18T10:05:13;95269.41;;;22.30;42.65
13407;BME280;6774;48.208;10.766;2023-03-18T10:07:42;95265.09;;;22.29;41.45
13407;BME280;6774;48.208;10.766;2023-03-18T10:10:18;95265.91;;;22.30;41.25
13407;BME280;6774;48.208;10.766;2023-03-18T10:12:49;95267.81;;;22.45;41.24
13407;BME280;6774;48.208;10.766;2023-03-18T10:15:21;95262.97;;;22.67;40.31
13407;BME280;6774;48.208;10.766;2023-03-18T10:17:54;95261.38;;;22.91;41.18
13407;BME280;6774;48.208;10.766;2023-03-18T10:20:30;95259.47;;;22.66;40.07
13407;BME280;6774;48.208;10.766;2023-03-18T10:23:12;95256.94;;;24.11;39.24
13407;BME280;6774;48.208;10.766;2023-03-18T10:25:47;95254.78;;;23.48;39.08
13407;BME280;6774;48.208;10.766;2023-03-18T10:28:48;95247.28;;;24.49;37.93
13407;BME280;6774;48.208;10.766;2023-03-18T10:31:30;95254.03;;;24.07;39.11
13407;BME280;6774;48.208;10.766;2023-03-18T10:34:05;95249.88;;;24.20;38.68
13407;BME280;6774;48.208;10.766;2023-03-18T10:36:38;95247.47;;;24.19;38.14
13407;BME280;6774;48.208;10.766;2023-03-18T10:39:12;95237.06;;;24.46;38.39
13407;BME280;6774;48.208;10.766;2023-03-18T10:41:43;95234.81;;;24.58;37.92
13407;BME280;6774;48.208;10.766;2023-03-18T10:44:17;95234.66;;;24.79;37.95
13407;BME280;6774;48.208;10.766;2023-03-18T10:46:46;95234.09;;;25.59;36.37
13407;BME280;6774;48.208;10.766;2023-03-18T10:49:20;95218.47;;;25.08;36.90
13407;BME280;6774;48.208;10.766;2023-03-18T10:51:54;95220.78;;;24.90;37.25
13407;BME280;6774;48.208;10.766;2023-03-18T10:54:27;95218.75;;;25.06;37.22
13407;BME280;6774;48.208;10.766;2023-03-18T10:56:58;95207.16;;;25.06;36.43
13407;BME280;6774;48.208;10.766;2023-03-18T10:59:27;95211.97;;;25.33;37.21
13407;BME280;6774;48.208;10.766;2023-03-18T11:01:58;95208.97;;;25.58;36.02
13407;BME280;6774;48.208;10.766;2023-03-18T11:04:37;95216.31;;;25.34;35.73
13407;BME280;6774;48.208;10.766;2023-03-18T11:07:12;95204.16;;;25.55;35.87
13407;BME280;6774;48.208;10.766;2023-03-18T11:09:41;95205.75;;;25.56;36.97
13407;BME280;6774;48.208;10.766;2023-03-18T11:12:14;95199.75;;;25.59;36.13
13407;BME280;6774;48.208;10.766;2023-03-18T11:14:46;95200.94;;;25.96;36.50
13407;BME280;6774;48.208;10.766;2023-03-18T11:17:19;95189.59;;;26.31;36.44
13407;BME280;6774;48.208;10.766;2023-03-18T11:19:59;95185.38;;;26.25;35.70
13407;BME280;6774;48.208;10.766;2023-03-18T11:22:28;95180.25;;;26.05;35.59
13407;BME280;6774;48.208;10.766;2023-03-18T11:25:03;95177.78;;;25.90;35.91
13407;BME280;6774;48.208;10.766;2023-03-18T11:27:36;95174.53;;;25.88;35.16
13407;BME280;6774;48.208;10.766;2023-03-18T11:30:17;95180.59;;;25.37;34.67
13407;BME280;6774;48.208;10.766;2023-03-18T11:33:04;95180.59;;;25.37;35.33
13407;BME280;6774;48.208;10.766;2023-03-18T11:35:37;95169.16;;;25.45;36.00
13407;BME280;6774;48.208;10.766;2023-03-18T11:38:11;95177.38;;;25.35;34.97
13407;BME280;6774;48.208;10.766;2023-03-18T11:40:40;95180.84;;;24.58;35.09
13407;BME280;6774;48.208;10.766;2023-03-18T11:43:16;95181.41;;;24.84;36.02
13407;BME280;6774;48.208;10.766;2023-03-18T11:45:53;95178.09;;;24.63;33.82
13407;BME280;6774;48.208;10.766;2023-03-18T11:48:29;95186.41;;;24.38;34.35
13407;BME280;6774;48.208;10.766;2023-03-18T11:54:21;95178.47;;;24.18;34.17
13407;BME280;6774;48.208;10.766;2023-03-18T11:56:54;95177.34;;;24.24;35.10
13407;BME280;6774;48.208;10.766;2023-03-18T11:59:33;95177.75;;;24.41;34.77
13407;BME280;6774;48.208;10.766;2023-03-18T12:02:28;95165.03;;;24.76;35.73
13407;BME280;6774;48.208;10.766;2023-03-18T12:05:04;95170.31;;;24.86;34.54
13407;BME280;6774;48.208;10.766;2023-03-18T12:07:46;95160.44;;;24.76;35.06
13407;BME280;6774;48.208;10.766;2023-03-18T12:10:23;95180.50;;;23.97;35.10
13407;BME280;6774;48.208;10.766;2023-03-18T12:13:03;95177.66;;;23.78;34.32
13407;BME280;6774;48.208;10.766;2023-03-18T12:15:44;95169.53;;;23.83;34.53
13407;BME280;6774;48.208;10.766;2023-03-18T12:18:22;95167.56;;;23.94;35.90
13407;BME280;6774;48.208;10.766;2023-03-18T12:20:54;95157.50;;;24.09;34.71
13407;BME280;6774;48.208;10.766;2023-03-18T12:23:36;95155.56;;;24.15;34.36
13407;BME280;6774;48.208;10.766;2023-03-18T12:26:07;95146.75;;;24.67;34.99
13407;BME280;6774;48.208;10.766;2023-03-18T12:28:47;95147.31;;;24.70;35.17
13407;BME280;6774;48.208;10.766;2023-03-18T12:31:27;95141.56;;;24.47;35.69
13407;BME280;6774;48.208;10.766;2023-03-18T12:34:01;95151.06;;;24.39;35.42
13407;BME280;6774;48.208;10.766;2023-03-18T12:36:44;95147.63;;;24.29;34.17
13407;BME280;6774;48.208;10.766;2023-03-18T12:39:52;95141.22;;;24.83;35.23
13407;BME280;6774;48.208;10.766;2023-03-18T12:42:31;95150.72;;;24.12;33.35
13407;BME280;6774;48.208;10.766;2023-03-18T12:45:07;95147.72;;;24.19;34.06
13407;BME280;6774;48.208;10.766;2023-03-18T12:47:39;95144.78;;;24.49;33.24
13407;BME280;6774;48.208;10.766;2023-03-18T12:50:14;95137.19;;;25.09;34.49
13407;BME280;6774;48.208;10.766;2023-03-18T12:52:45;95133.38;;;25.34;33.50
13407;BME280;6774;48.208;10.766;2023-03-18T12:55:17;95130.03;;;25.42;33.65
13407;BME280;6774;48.208;10.766;2023-03-18T12:57:51;95132.66;;;25.66;33.56
13407;BME280;6774;48.208;10.766;2023-03-18T13:00:23;95118.84;;;25.49;34.11
13407;BME280;6774;48.208;10.766;2023-03-18T13:02:58;95116.75;;;25.65;32.85
13407;BME280;6774;48.208;10.766;2023-03-18T13:05:39;95122.91;;;25.70;32.79
13407;BME280;6774;48.208;10.766;2023-03-18T13:11:22;95109.50;;;25.60;33.94
13407;BME280;6774;48.208;10.766;2023-03-18T13:13:55;95100.53;;;25.46;33.53
13407;BME280;6774;48.208;10.766;2023-03-18T13:16:26;95111.56;;;25.07;34.55
13407;BME280;6774;48.208;10.766;2023-03-18T13:18:58;95105.13;;;25.03;34.87
13407;BME280;6774;48.208;10.766;2023-03-18T13:21:29;95110.81;;;24.96;34.26
13407;BME280;6774;48.208;10.766;2023-03-18T13:24:13;95105.84;;;24.84;34.33
13407;BME280;6774;48.208;10.766;2023-03-18T13:26:55;95100.78;;;24.78;35.16
13407;BME280;6774;48.208;10.766;2023-03-18T13:29:33;95108.03;;;24.82;36.25
13407;BME280;6774;48.208;10.766;2023-03-18T13:32:13;95103.63;;;25.15;36.04
13407;BME280;6774;48.208;10.766;2023-03-18T13:38:25;95101.72;;;24.92;35.41
13407;BME280;6774;48.208;10.766;2023-03-18T13:41:22;95104.78;;;24.56;35.45